createdAt,value
2023-02-11T00:00:23.586Z,28.2
2023-02-11T00:04:29.754Z,59.3
2023-02-11T00:06:32.855Z,30.3
2023-02-11T00:10:42.233Z,25.3
2023-02-11T00:15:51.821Z,21.9
2023-02-11T00:17:54.721Z,31
2023-02-11T00:22:00.949Z,77.3
2023-02-11T00:24:07.216Z,45.6
2023-02-11T00:26:10.305Z,26.5
2023-02-11T00:28:13.501Z,40.6
2023-02-11T00:30:16.512Z,23
2023-02-11T00:32:19.607Z,26.5
2023-02-11T00:34:22.708Z,20.2
2023-02-11T00:36:25.802Z,25.9
2023-02-11T00:38:32.072Z,31
2023-02-11T00:40:35.227Z,26.1
2023-02-11T00:42:38.292Z,24.6
2023-02-11T00:44:41.394Z,38.9
2023-02-11T00:48:47.618Z,50.4
2023-02-11T00:50:50.706Z,20.4
2023-02-11T00:52:56.998Z,38.6
2023-02-11T00:55:00.780Z,54.7
2023-02-11T00:57:03.207Z,42.9
2023-02-11T00:59:06.302Z,44.8
2023-02-11T01:01:09.442Z,38.6
2023-02-11T01:03:12.495Z,47.5
2023-02-11T01:05:15.625Z,17
2023-02-11T01:07:21.916Z,35.6
2023-02-11T01:09:25.012Z,32.8
2023-02-11T01:11:28.116Z,9.6
2023-02-11T01:16:37.460Z,27.9
2023-02-11T01:18:40.557Z,20.4
2023-02-11T01:28:59.283Z,67.1
2023-02-11T01:31:02.513Z,31.1
2023-02-11T01:33:05.487Z,32.8
2023-02-11T01:35:11.789Z,37.4
2023-02-11T01:37:14.872Z,29.9
2023-02-11T01:39:18.004Z,27.3
2023-02-11T01:41:21.082Z,38.3
2023-02-11T01:43:24.211Z,12.6
2023-02-11T01:45:27.290Z,31.1
2023-02-11T01:47:30.397Z,72.5
2023-02-11T01:49:36.749Z,32
2023-02-11T01:51:39.800Z,43.5
2023-02-11T01:53:42.891Z,26.2
2023-02-11T01:57:49.097Z,29.4
2023-02-11T02:04:01.676Z,44.7
2023-02-11T02:08:07.837Z,31.7
2023-02-11T02:11:14.056Z,24.7
2023-02-11T02:13:17.162Z,25.6
2023-02-11T02:15:20.273Z,46.3
2023-02-11T02:19:29.646Z,28
2023-02-11T02:21:32.745Z,22.2
2023-02-11T02:23:35.846Z,25.8
2023-02-11T02:25:38.927Z,30.6
2023-02-11T02:27:42.046Z,25.1
2023-02-11T02:29:45.134Z,37
2023-02-11T02:31:51.482Z,42.8
2023-02-11T02:33:54.531Z,23.6
2023-02-11T02:35:57.625Z,47.5
2023-02-11T02:38:00.746Z,37.7
2023-02-11T02:44:10.050Z,49.2
2023-02-11T02:52:25.626Z,53.9
2023-02-11T02:54:28.729Z,27.9
2023-02-11T02:56:31.822Z,22.6
2023-02-11T02:58:34.942Z,37
2023-02-11T03:00:41.358Z,49.2
2023-02-11T03:02:44.333Z,27.1
2023-02-11T03:04:47.429Z,50.4
2023-02-11T03:09:20.334Z,29.1
2023-02-11T03:13:29.720Z,21.6
2023-02-11T03:15:32.828Z,49.6
2023-02-11T03:19:39.002Z,34.2
2023-02-11T03:21:42.106Z,35.7
2023-02-11T03:23:45.220Z,44.6
2023-02-11T03:25:48.501Z,28.1
2023-02-11T03:27:54.656Z,44.7
2023-02-11T03:29:57.702Z,64.5
2023-02-11T03:32:02.481Z,53.2
2023-02-11T03:34:05.452Z,37.3
2023-02-11T03:36:08.537Z,53.4
2023-02-11T03:38:11.635Z,34.6
2023-02-11T03:40:14.733Z,24.1
2023-02-11T03:42:21.103Z,50.8
2023-02-11T03:44:24.200Z,49
2023-02-11T03:46:27.383Z,25.2
2023-02-11T03:48:30.402Z,30.7
2023-02-11T03:58:49.087Z,21.6
2023-02-11T04:00:52.294Z,35.9
2023-02-11T04:06:01.494Z,51.7
2023-02-11T04:08:04.566Z,53
2023-02-11T04:10:10.846Z,26.9
2023-02-11T04:12:13.968Z,34.1
2023-02-11T04:14:17.029Z,40.7
2023-02-11T04:16:20.228Z,37.9
2023-02-11T04:18:23.249Z,26.8
2023-02-11T04:20:26.325Z,38.2
2023-02-11T04:22:29.393Z,41.1
2023-02-11T04:24:35.706Z,49
2023-02-11T04:26:38.817Z,49.8
2023-02-11T04:28:41.898Z,36.5
2023-02-11T04:30:45.085Z,48.2
2023-02-11T04:32:48.111Z,43.2
2023-02-11T04:34:51.205Z,34.1
2023-02-11T04:39:00.617Z,29.2
2023-02-11T04:41:03.720Z,40
2023-02-11T04:43:06.800Z,40.3
2023-02-11T04:45:09.897Z,30.2
2023-02-11T04:47:13.000Z,55.7
2023-02-11T04:51:19.218Z,40.5
2023-02-11T04:53:25.521Z,46
2023-02-11T04:55:28.624Z,41
2023-02-11T04:57:31.726Z,67.5
2023-02-11T04:58:34.864Z,45.9
2023-02-11T05:00:37.972Z,34.2
2023-02-11T05:02:41.097Z,36.3
2023-02-11T05:12:59.772Z,69.2
2023-02-11T05:17:05.916Z,58.1
2023-02-11T05:19:09.021Z,77.1
2023-02-11T05:31:30.819Z,46.3
2023-02-11T05:35:40.218Z,57.4
2023-02-11T05:41:49.490Z,54.6
2023-02-11T05:43:52.579Z,60.4
2023-02-11T05:45:55.728Z,59.3
2023-02-11T05:47:58.794Z,54.4
2023-02-11T05:50:05.071Z,42.9
2023-02-11T05:54:11.243Z,62.4
2023-02-11T05:55:14.399Z,77.5
2023-02-11T06:07:36.180Z,59.7
2023-02-11T06:09:39.300Z,85.9
2023-02-11T06:11:42.388Z,60.2
2023-02-11T06:13:45.505Z,46.3
2023-02-11T06:15:48.928Z,83.9
2023-02-11T06:22:01.112Z,54.7
2023-02-11T06:24:04.200Z,82.8
2023-02-11T06:26:07.293Z,48.2
2023-02-11T06:28:10.445Z,43.6
2023-02-11T06:30:13.495Z,68.3
2023-02-11T06:32:39.283Z,50.1
2023-02-11T06:34:22.893Z,66.8
2023-02-11T06:36:25.994Z,63.8
2023-02-11T06:38:29.115Z,71.7
2023-02-11T06:40:32.232Z,67.7
2023-02-11T06:42:35.268Z,62
2023-02-11T06:44:38.363Z,48.6
2023-02-11T06:48:47.757Z,76.3
2023-02-11T06:50:50.876Z,92.3
2023-02-11T06:57:21.252Z,61
2023-02-11T06:59:27.544Z,87.7
2023-02-11T07:01:30.671Z,55.9
2023-02-11T07:03:33.727Z,80.9
2023-02-11T07:05:36.824Z,74.3
2023-02-11T07:07:39.934Z,64.4
2023-02-11T07:09:43.040Z,63.6
2023-02-11T07:13:52.436Z,63.1
2023-02-11T07:15:55.635Z,76.8
2023-02-11T07:17:58.599Z,47.8
2023-02-11T07:20:01.722Z,67.2
2023-02-11T07:22:04.819Z,76.6
2023-02-11T07:24:10.769Z,55.4
2023-02-11T07:26:11.040Z,63.5
2023-02-11T07:28:17.401Z,91.7
2023-02-11T07:30:20.431Z,74.2
2023-02-11T07:32:23.522Z,61.7
2023-02-11T07:34:26.640Z,70.4
2023-02-11T07:36:29.776Z,71.4
2023-02-11T07:38:32.864Z,66.5
2023-02-11T07:40:35.936Z,63.8
2023-02-11T07:42:42.217Z,82.4
2023-02-11T07:44:45.327Z,72
2023-02-11T07:46:48.498Z,79.6
2023-02-11T07:47:51.598Z,88.2
2023-02-11T07:49:56.556Z,54.3
2023-02-11T07:54:00.900Z,87
2023-02-11T07:58:10.311Z,66.6
2023-02-11T08:04:19.582Z,68.8
2023-02-11T08:06:22.678Z,84.6
2023-02-11T08:08:25.786Z,84.7
2023-02-11T08:10:32.092Z,72.1
2023-02-11T08:12:35.163Z,73.7
2023-02-11T08:16:41.488Z,61.2
2023-02-11T08:18:44.449Z,68.8
2023-02-11T08:20:47.633Z,76.4
2023-02-11T08:22:50.784Z,55.8
2023-02-11T08:27:00.147Z,66.9
2023-02-11T08:29:03.155Z,67.9
2023-02-11T08:31:06.289Z,57.1
2023-02-11T08:33:09.331Z,65
2023-02-11T08:35:12.449Z,64.4
2023-02-11T08:37:15.550Z,52.6
2023-02-11T08:43:28.042Z,74.2
2023-02-11T08:44:31.208Z,54.3
2023-02-11T08:46:34.405Z,78.7
2023-02-11T08:48:37.441Z,64.9
2023-02-11T08:50:40.542Z,58.7
2023-02-11T08:52:46.881Z,70.5
2023-02-11T08:54:49.980Z,53.4
2023-02-11T08:56:53.095Z,59.5
2023-02-11T08:58:56.208Z,64.8
2023-02-11T09:07:11.989Z,60.6
2023-02-11T09:11:18.312Z,44.4
2023-02-11T09:13:21.331Z,59.8
2023-02-11T09:15:24.445Z,57
2023-02-11T09:17:27.535Z,71.2
2023-02-11T09:19:30.658Z,48.9
2023-02-11T09:21:36.985Z,63.9
2023-02-11T09:23:40.088Z,53.7
2023-02-11T09:25:43.206Z,59.9
2023-02-11T09:27:47.925Z,51.5
2023-02-11T09:29:50.947Z,65.8
2023-02-11T09:31:54.228Z,64.6
2023-02-11T09:33:57.197Z,41.6
2023-02-11T09:36:03.525Z,54.8
2023-02-11T09:38:06.637Z,43.6
2023-02-11T09:40:09.768Z,50.1
2023-02-11T09:49:28.640Z,65
2023-02-11T09:51:31.766Z,49.2
2023-02-11T09:53:34.899Z,57.4
2023-02-11T09:55:38.133Z,34.8
2023-02-11T09:57:41.152Z,63.5
2023-02-11T10:01:47.488Z,49.9
2023-02-11T10:05:56.864Z,52.3
2023-02-11T10:07:59.998Z,45.9
2023-02-11T10:12:06.245Z,37.9
2023-02-11T10:14:09.397Z,41.7
2023-02-11T10:16:12.596Z,46.9
2023-02-11T10:18:18.885Z,41
2023-02-11T10:20:22.044Z,32.9
2023-02-11T10:22:25.124Z,47.9
2023-02-11T10:24:28.260Z,46.1
2023-02-11T10:26:31.378Z,30.4
2023-02-11T10:28:34.640Z,57.9
2023-02-11T10:30:37.640Z,46.8
2023-02-11T10:32:43.957Z,29.7
2023-02-11T10:34:47.146Z,41
2023-02-11T10:39:14.305Z,25.4
2023-02-11T10:41:17.456Z,54.6
2023-02-11T10:43:20.573Z,34
2023-02-11T10:45:26.955Z,26.8
2023-02-11T10:47:30.057Z,40.9
2023-02-11T10:49:33.194Z,35.4
2023-02-11T10:51:36.302Z,30.1
2023-02-11T10:53:39.448Z,32
2023-02-11T10:57:45.741Z,26
2023-02-11T10:59:52.085Z,21.6
2023-02-11T11:01:55.239Z,32.9
2023-02-11T11:03:58.364Z,24.6
2023-02-11T11:06:01.497Z,20.9
2023-02-11T11:08:04.656Z,22.2
2023-02-11T11:10:07.797Z,23.4
2023-02-11T11:12:10.955Z,36.4
2023-02-11T11:14:17.287Z,27.6
2023-02-11T11:16:20.475Z,29.2
2023-02-11T11:18:23.766Z,21.7
2023-02-11T11:20:26.702Z,15.1
2023-02-11T11:22:29.842Z,36.3
2023-02-11T11:24:32.966Z,37.6
2023-02-11T11:26:36.113Z,23.6
2023-02-11T11:28:42.446Z,39.1
2023-02-11T11:30:45.613Z,24.1
2023-02-11T11:32:48.737Z,14.1
2023-02-11T11:33:51.907Z,18.9
2023-02-11T11:35:55.052Z,19.9
2023-02-11T11:38:01.281Z,21.4
2023-02-11T11:40:01.348Z,25.3
2023-02-11T11:42:07.681Z,21
2023-02-11T11:44:11.259Z,16.3
2023-02-11T11:46:14.433Z,14.1
2023-02-11T11:48:17.521Z,20.8
2023-02-11T11:50:21.270Z,29.5
2023-02-11T11:52:23.797Z,26.8
2023-02-11T11:54:26.903Z,35.2
2023-02-11T11:56:33.274Z,23.2
2023-02-11T11:58:36.410Z,19.5
2023-02-11T12:00:39.550Z,21.3
2023-02-11T12:02:42.710Z,17.1
2023-02-11T12:04:45.834Z,19.5
2023-02-11T12:06:48.973Z,30.5
2023-02-11T12:08:52.088Z,26.9
2023-02-11T12:10:58.449Z,34.4
2023-02-11T12:13:01.581Z,29.1
2023-02-11T12:15:04.717Z,15.9
2023-02-11T12:17:07.886Z,13.2
2023-02-11T12:19:11.014Z,27.4
2023-02-11T12:21:14.171Z,20.5
2023-02-11T12:23:17.310Z,20.5
2023-02-11T12:25:23.696Z,18.4
2023-02-11T12:27:26.809Z,23.1
2023-02-11T12:29:29.980Z,15.6
2023-02-11T12:32:36.304Z,20.3
2023-02-11T12:36:42.520Z,20.2
2023-02-11T12:38:48.652Z,17.5
2023-02-11T12:40:51.979Z,19.9
2023-02-11T12:42:54.739Z,34.5
2023-02-11T12:44:57.811Z,16.8
2023-02-11T12:51:06.939Z,19
2023-02-11T12:55:16.247Z,27.6
2023-02-11T12:57:19.312Z,35
2023-02-11T12:59:22.353Z,16.5
2023-02-11T13:01:25.519Z,19.1
2023-02-11T13:03:28.653Z,15
2023-02-11T13:05:31.703Z,13.1
2023-02-11T13:07:37.981Z,35.1
2023-02-11T13:13:47.133Z,12.6
2023-02-11T13:15:50.176Z,14.3
2023-02-11T13:17:53.335Z,25.2
2023-02-11T13:19:56.382Z,6.5
2023-02-11T13:22:02.586Z,21.5
2023-02-11T13:24:05.609Z,11.7
2023-02-11T13:26:08.693Z,14.1
2023-02-11T13:31:18.072Z,8.3
2023-02-11T13:35:27.124Z,9.2
2023-02-11T13:37:30.180Z,27
2023-02-11T13:39:33.226Z,5
2023-02-11T13:41:36.292Z,13.1
2023-02-11T13:43:39.329Z,21.9
2023-02-11T13:45:42.396Z,8.1
2023-02-11T13:47:45.445Z,13.3
2023-02-11T13:49:51.597Z,9.4
2023-02-11T13:51:54.665Z,18.7
2023-02-11T13:53:57.730Z,12.7
2023-02-11T13:56:00.760Z,7.6
2023-02-11T14:00:06.921Z,4.9
2023-02-11T14:02:09.984Z,7
2023-02-11T14:04:16.071Z,12.7
2023-02-11T14:06:19.139Z,7.2
2023-02-11T14:08:22.207Z,9.9
2023-02-11T14:10:25.258Z,12.9
2023-02-11T14:12:28.735Z,26.1
2023-02-11T14:14:31.821Z,11.2
2023-02-11T14:22:47.156Z,6.3
2023-02-11T14:25:16.755Z,11.9
2023-02-11T14:27:19.695Z,7.2
2023-02-11T14:29:22.772Z,6.9
2023-02-11T14:31:29.067Z,9.5
2023-02-11T14:33:31.968Z,9.6
2023-02-11T14:35:35.127Z,10.8
2023-02-11T14:37:38.073Z,14.4
2023-02-11T14:39:41.120Z,15.8
2023-02-11T14:41:44.175Z,11.7
2023-02-11T14:43:47.356Z,15.1
2023-02-11T14:47:56.884Z,8.5
2023-02-11T14:50:00.012Z,15.6
2023-02-11T14:54:06.333Z,7.8
2023-02-11T14:56:09.468Z,5.8
2023-02-11T15:00:19.053Z,6.3
2023-02-11T15:02:22.152Z,7.3
2023-02-11T15:04:25.304Z,23
2023-02-11T15:06:28.430Z,14.7
2023-02-11T15:08:31.588Z,6.8
2023-02-11T15:12:37.872Z,13.8
2023-02-11T15:16:47.329Z,14.9
2023-02-11T15:18:50.475Z,11.5
2023-02-11T15:19:53.650Z,14.1
2023-02-11T15:21:58.343Z,9.7
2023-02-11T15:38:26.669Z,8.1
2023-02-11T15:40:29.841Z,8.8
2023-02-11T15:42:50.722Z,13.9
2023-02-11T15:46:42.561Z,11.4
2023-02-11T15:48:45.585Z,8.8
2023-02-11T15:50:48.802Z,8.8
2023-02-11T15:52:51.886Z,5.1
2023-02-11T15:54:55.035Z,6.6
2023-02-11T15:57:01.400Z,6.6
2023-02-11T15:59:04.519Z,44.2
2023-02-11T16:01:07.653Z,6.5
2023-02-11T16:07:17.087Z,4.8
2023-02-11T16:09:20.212Z,8.5
2023-02-11T16:11:26.550Z,12.7
2023-02-11T16:15:32.832Z,6.5
2023-02-11T16:16:36.255Z,11.2
2023-02-11T16:18:40.102Z,21
2023-02-11T16:20:42.258Z,24.6
2023-02-11T16:22:45.448Z,11.1
2023-02-11T16:24:51.737Z,12.5
2023-02-11T16:28:58.040Z,15.7
2023-02-11T16:39:16.898Z,16.7
2023-02-11T16:41:20.003Z,17.6
2023-02-11T16:47:29.412Z,21.3
2023-02-11T16:51:35.693Z,16.8
2023-02-11T16:55:45.191Z,4.3
2023-02-11T16:59:51.446Z,21.5
2023-02-11T17:03:57.720Z,12
2023-02-11T17:06:01.138Z,8.3
2023-02-11T17:10:10.358Z,16.8
2023-02-11T17:12:13.490Z,10
2023-02-11T17:13:16.660Z,20.5
2023-02-11T17:15:19.812Z,14.4
2023-02-11T17:17:22.912Z,22.4
2023-02-11T17:19:26.197Z,16.4
2023-02-11T17:21:32.398Z,12.8
2023-02-11T17:23:35.525Z,19.6
2023-02-11T17:25:38.648Z,12.3
2023-02-11T17:27:41.788Z,14.3
2023-02-11T17:31:48.088Z,9.6
2023-02-11T17:33:51.190Z,24.9
2023-02-11T17:35:57.516Z,20.9
2023-02-11T17:38:00.638Z,12.3
2023-02-11T17:40:03.833Z,15.2
2023-02-11T17:42:06.928Z,12.9
2023-02-11T17:44:10.046Z,30.3
2023-02-11T17:46:13.208Z,35.2
2023-02-11T17:48:16.296Z,28.1
2023-02-11T17:50:22.596Z,13
2023-02-11T17:52:25.748Z,11
2023-02-11T17:54:28.886Z,22.7
2023-02-11T17:56:31.998Z,19.4
2023-02-11T17:58:35.042Z,18.1
2023-02-11T18:00:38.175Z,19
2023-02-11T18:02:41.306Z,19.3
2023-02-11T18:04:47.657Z,32.7
2023-02-11T18:06:50.763Z,17.1
2023-02-11T18:08:56.250Z,21
2023-02-11T18:11:17.763Z,18.5
2023-02-11T18:13:20.899Z,19.3
2023-02-11T18:15:24.047Z,43.8
2023-02-11T18:17:30.371Z,16.9
2023-02-11T18:19:33.474Z,25
2023-02-11T18:21:36.633Z,17.8
2023-02-11T18:23:39.781Z,22.1
2023-02-11T18:25:42.897Z,16.8
2023-02-11T18:27:46.045Z,21.8
2023-02-11T18:29:49.169Z,12.2
2023-02-11T18:31:55.565Z,14.3
2023-02-11T18:33:58.609Z,26.1
2023-02-11T18:36:01.745Z,20
2023-02-11T18:38:04.883Z,19.3
2023-02-11T18:40:08.034Z,16.7
2023-02-11T18:42:11.144Z,16.8
2023-02-11T18:44:14.277Z,22.3
2023-02-11T18:46:20.674Z,23.4
2023-02-11T18:48:23.726Z,17.5
2023-02-11T18:50:26.876Z,24.1
2023-02-11T19:00:45.719Z,23.2
2023-02-11T19:02:48.849Z,25.8
2023-02-11T19:05:55.154Z,17.7
2023-02-11T19:07:58.282Z,17.2
2023-02-11T19:10:01.415Z,18.6
2023-02-11T19:12:04.527Z,17
2023-02-11T19:14:10.843Z,31.3
2023-02-11T19:16:13.969Z,24.6
2023-02-11T19:18:17.145Z,16.8
2023-02-11T19:20:20.216Z,27
2023-02-11T19:22:23.358Z,18.8
2023-02-11T19:24:26.457Z,38.5
2023-02-11T19:26:29.584Z,24.2
2023-02-11T19:28:35.962Z,19.3
2023-02-11T19:30:39.089Z,18
2023-02-11T19:32:42.163Z,16.6
2023-02-11T19:34:45.264Z,20.3
2023-02-11T19:36:48.381Z,27.9
2023-02-11T19:38:51.496Z,20.1
2023-02-11T19:40:54.632Z,30.7
2023-02-11T19:47:07.231Z,17
2023-02-11T19:49:10.336Z,18.8
2023-02-11T19:51:13.553Z,27.3
2023-02-11T19:53:16.594Z,23.5
2023-02-11T19:55:19.726Z,17.9
2023-02-11T19:57:26.069Z,22.3
2023-02-11T20:02:35.570Z,22.2
2023-02-11T20:04:38.620Z,21
2023-02-11T20:06:41.752Z,22.1
2023-02-11T20:08:44.868Z,20.5
2023-02-11T20:19:03.644Z,36.8
2023-02-11T20:21:06.767Z,22
2023-02-11T20:23:09.886Z,42.6
2023-02-11T20:25:16.194Z,37.1
2023-02-11T20:27:20.203Z,32.2
2023-02-11T20:29:22.429Z,24.4
2023-02-11T20:31:25.700Z,23
2023-02-11T20:37:34.908Z,26.4
2023-02-11T20:39:41.229Z,24.7
2023-02-11T20:41:44.406Z,28.7
2023-02-11T20:43:47.462Z,25.5
2023-02-11T20:45:50.898Z,21.4
2023-02-11T20:47:53.716Z,15.2
2023-02-11T20:49:56.841Z,20.2
2023-02-11T20:54:06.333Z,35
2023-02-11T20:56:09.386Z,29
2023-02-11T20:58:12.519Z,23.7
2023-02-11T20:59:15.673Z,24.8
2023-02-11T21:01:18.822Z,18.9
2023-02-11T21:03:21.954Z,22.9
2023-02-11T21:05:25.031Z,21.1
2023-02-11T21:07:31.370Z,30.9
2023-02-11T21:09:34.468Z,43.7
2023-02-11T21:11:37.623Z,20.7
2023-02-11T21:17:48.520Z,40.6
2023-02-11T21:24:01.044Z,22
2023-02-11T21:28:07.292Z,27.8
2023-02-11T21:30:10.381Z,28.2
2023-02-11T21:34:16.634Z,29.9
2023-02-11T21:36:22.955Z,29
2023-02-11T21:38:26.078Z,24.5
2023-02-11T21:40:29.178Z,23.9
2023-02-11T21:42:32.290Z,20
2023-02-11T21:44:35.421Z,25.8
2023-02-11T21:46:38.770Z,35.2
2023-02-11T21:48:41.661Z,32
2023-02-11T21:50:47.973Z,44.6
2023-02-11T21:52:51.117Z,30.1
2023-02-11T21:54:54.216Z,37.4
2023-02-11T21:57:24.023Z,22.1
2023-02-11T22:05:39.704Z,22.2
2023-02-11T22:09:45.922Z,30.9
2023-02-11T22:11:49.051Z,20.8
2023-02-11T22:13:52.159Z,22.3
2023-02-11T22:15:55.649Z,28.6
2023-02-11T22:22:07.843Z,20.7
2023-02-11T22:24:10.955Z,19.4
2023-02-11T22:26:14.063Z,20.7
2023-02-11T22:28:17.212Z,26.6
2023-02-11T22:30:20.303Z,18.7
2023-02-11T22:32:26.601Z,37.6
2023-02-11T22:34:29.732Z,19.4
2023-02-11T22:36:32.865Z,36.4
2023-02-11T22:38:35.987Z,25.4
2023-02-11T22:40:39.093Z,20.6
2023-02-11T22:42:42.195Z,21.3
2023-02-11T22:44:45.319Z,28.8
2023-02-11T22:46:51.653Z,32.5
2023-02-11T22:48:54.758Z,17.3
2023-02-11T22:50:57.863Z,40.3
2023-02-11T22:52:01.042Z,40.2
2023-02-11T22:54:04.168Z,52.5
2023-02-11T22:56:07.271Z,39.7
2023-02-11T22:58:10.417Z,43.4
2023-02-11T23:00:16.732Z,17.1
2023-02-11T23:02:20.096Z,38.9
2023-02-11T23:04:22.980Z,24.8
2023-02-11T23:06:26.104Z,28.7
2023-02-11T23:08:29.188Z,32.6
2023-02-11T23:10:32.328Z,24.9
2023-02-11T23:12:35.456Z,20.8
2023-02-11T23:14:41.765Z,33.9
2023-02-11T23:16:45.097Z,39.4
2023-02-11T23:18:47.999Z,29.3
2023-02-11T23:20:51.113Z,36.1
2023-02-11T23:22:54.285Z,27.6
2023-02-11T23:24:57.365Z,32.5
2023-02-11T23:27:00.471Z,23.9
2023-02-11T23:29:06.811Z,25.2
2023-02-11T23:31:09.944Z,27.3
2023-02-11T23:33:13.013Z,25.8
2023-02-11T23:35:16.138Z,33.8
2023-02-11T23:37:19.286Z,30.9
2023-02-11T23:39:22.386Z,22.5
2023-02-11T23:41:25.464Z,28.6
2023-02-11T23:45:34.942Z,22.6
2023-02-11T23:47:38.050Z,24.7
2023-02-11T23:48:41.217Z,22.8
2023-02-11T23:50:44.327Z,30.3
2023-02-11T23:52:47.438Z,26.2
2023-02-11T23:54:50.539Z,38.4
2023-02-11T23:56:56.848Z,35.7
2023-02-11T23:58:59.961Z,36.5
